Aimogasta, Argentina
Current Conditions -  °F | °C
As of 3:00 AM on Saturday 25 Oct 2014 (Local Time) from SANT Reporting Station
Clear Clear  
Wind Chill: 73°   Ceiling: Unl
Heat Index: 73°   Visibility: 6mi
Dew Point: 59°   Wind: 7mph
Humidity: 61%   Direction: 320°NW
Pressure: 29.88"   Gusts: NA
Location:  28.55°S, 66.82°W
Report Text: SANT 250600Z 32006KT CAVOK 23/15 Q1012
Loading
Personal Weather Stations






























Interactive Weather Map
Tropical Storm Tracking
New forecast layout! Learn more

10-Day Weather Forecast

Advertisements
Track Severe Weather on mobile